Time;durP1;ratioP1;P1;durP2;ratioP2;P2;SDS_P1;SDS_P2;PMS_P1;PMS_P2;Temp;Humidity;BMP_temperature;BMP_pressure;BME280_temperature;BME280_humidity;BME280_pressure;Samples;Min_cycle;Max_cycle;Signal;HPM_P1;HPM_P2
2022/11/28 00:01:37;;;;;;;22.53;10.60;;;1.00;99.90;0.80;100937.00;;;;4991226;27;114609;-64
2022/11/28 00:04:04;;;;;;;16.53;11.30;;;1.10;99.90;0.90;100940.00;;;;4990731;27;88803;-64
2022/11/28 00:06:30;;;;;;;21.90;10.27;;;1.20;99.90;0.90;100943.00;;;;4983167;28;88005;-64
2022/11/28 00:09:00;;;;;;;17.23;10.53;;;1.30;99.90;1.00;100934.00;;;;4977809;27;104830;-64
2022/11/28 00:11:26;;;;;;;12.77;9.10;;;1.30;99.90;1.10;100933.00;;;;4992788;27;88436;-64
2022/11/28 00:13:51;;;;;;;14.13;7.53;;;1.40;99.90;1.10;100933.00;;;;4992858;27;97430;-64
2022/11/28 00:16:21;;;;;;;17.67;10.63;;;1.40;99.90;1.20;100926.00;;;;4992357;27;108420;-64
2022/11/28 00:18:53;;;;;;;14.40;8.87;;;1.50;99.90;1.20;100922.00;;;;4982724;27;88774;-65
2022/11/28 00:21:19;;;;;;;11.07;8.43;;;1.60;99.90;1.30;100914.00;;;;4992260;28;87494;-65
2022/11/28 00:23:47;;;;;;;10.67;8.17;;;1.60;99.90;1.30;100910.00;;;;4991418;27;105542;-65
2022/11/28 00:26:17;;;;;;;15.97;8.13;;;1.70;99.90;1.40;100900.00;;;;4993610;27;87775;-65
2022/11/28 00:28:43;;;;;;;8.80;7.27;;;1.50;99.90;1.40;100910.00;;;;4985625;27;94935;-66
2022/11/28 00:31:20;;;;;;;14.30;8.50;;;1.70;99.90;1.40;100902.00;;;;4990175;28;117276;-65
2022/11/28 00:33:46;;;;;;;12.80;8.43;;;1.80;99.90;1.50;100910.00;;;;4986304;28;87807;-65
2022/11/28 00:36:12;;;;;;;12.57;8.37;;;1.80;99.90;1.50;100896.00;;;;4994458;27;87729;-64
2022/11/28 00:38:38;;;;;;;13.77;7.53;;;1.80;99.90;1.50;100903.00;;;;4988442;28;88606;-65
2022/11/28 00:41:14;;;;;;;14.77;7.90;;;1.70;99.90;1.50;100895.00;;;;4987438;28;110281;-65
2022/11/28 00:43:42;;;;;;;8.83;8.00;;;1.80;99.90;1.60;100889.00;;;;4988316;28;105220;-65
2022/11/28 00:46:09;;;;;;;11.23;6.77;;;1.80;99.90;1.60;100885.00;;;;4994502;28;86966;-65
2022/11/28 00:48:34;;;;;;;10.27;7.40;;;2.00;99.90;1.60;100891.00;;;;5001182;28;110745;-64
2022/11/28 00:51:13;;;;;;;8.27;6.33;;;1.90;99.90;1.60;100888.00;;;;4999872;28;88820;-66
2022/11/28 00:53:41;;;;;;;12.37;7.47;;;1.90;99.90;1.60;100888.00;;;;4998303;28;88937;-65
2022/11/28 00:56:11;;;;;;;10.43;7.10;;;1.90;99.90;1.60;100891.00;;;;4999467;28;87856;-64
2022/11/28 00:58:37;;;;;;;14.93;8.93;;;1.90;99.90;1.60;100888.00;;;;4997111;28;103355;-64
2022/11/28 01:01:18;;;;;;;10.00;6.60;;;1.90;99.90;1.60;100889.00;;;;4996766;27;110402;-65
2022/11/28 01:03:47;;;;;;;9.50;6.93;;;1.90;99.90;1.60;100881.00;;;;4996846;28;88401;-65
2022/11/28 01:06:29;;;;;;;9.00;6.80;;;1.90;99.90;1.60;100885.00;;;;4994270;28;87793;-63
2022/11/28 01:08:57;;;;;;;10.63;7.47;;;1.90;99.90;1.60;100877.00;;;;4986760;28;101482;-64
2022/11/28 01:11:23;;;;;;;13.20;6.73;;;1.90;99.90;1.60;100882.00;;;;4995974;28;87278;-64
2022/11/28 01:13:53;;;;;;;9.87;6.47;;;1.90;99.90;1.60;100876.00;;;;4999558;28;87832;-65
2022/11/28 01:16:18;;;;;;;12.17;7.30;;;1.90;99.90;1.60;100880.00;;;;4997779;28;88427;-65
2022/11/28 01:18:44;;;;;;;9.43;6.87;;;1.90;99.90;1.60;100875.00;;;;4991255;27;117778;-65
2022/11/28 01:21:10;;;;;;;9.50;6.17;;;1.90;99.90;1.70;100878.00;;;;4995533;28;118546;-65
2022/11/28 01:23:36;;;;;;;10.33;6.07;;;1.90;99.90;1.70;100871.00;;;;5000737;28;87932;-65
2022/11/28 01:26:06;;;;;;;9.80;6.10;;;1.90;99.90;1.70;100868.00;;;;4998792;28;87832;-64
2022/11/28 01:28:33;;;;;;;11.73;6.10;;;1.90;99.90;1.70;100857.00;;;;4996070;28;88033;-64
2022/11/28 01:31:07;;;;;;;11.80;6.63;;;2.00;99.90;1.70;100856.00;;;;4993038;28;88838;-64
2022/11/28 01:33:33;;;;;;;9.80;6.90;;;2.10;99.90;1.70;100860.00;;;;4996520;28;88001;-65
2022/11/28 01:35:59;;;;;;;11.60;6.60;;;2.00;99.90;1.70;100848.00;;;;4981012;28;95065;-65
2022/11/28 01:38:27;;;;;;;11.23;6.27;;;1.80;99.90;1.70;100859.00;;;;4997786;27;88929;-65
2022/11/28 01:40:53;;;;;;;16.10;6.77;;;2.90;99.90;1.70;100848.00;;;;4995711;28;87967;-65
2022/11/28 01:43:19;;;;;;;10.73;5.47;;;1.90;99.90;1.70;100843.00;;;;4990981;28;89019;-65
2022/11/28 01:45:45;;;;;;;11.80;6.77;;;2.00;99.90;1.70;100838.00;;;;4994947;28;87957;-64
2022/11/28 01:48:18;;;;;;;12.93;5.50;;;2.10;99.90;1.70;100848.00;;;;4996793;28;93681;-66
2022/11/28 01:50:48;;;;;;;6.33;4.67;;;2.20;99.90;1.70;100846.00;;;;4997696;28;108446;-64
2022/11/28 01:53:15;;;;;;;6.87;6.10;;;2.00;99.90;1.70;100844.00;;;;4982888;28;89569;-64
2022/11/28 01:55:55;;;;;;;6.97;6.23;;;2.00;99.90;1.60;100830.00;;;;4981034;28;87903;-66
2022/11/28 01:58:21;;;;;;;11.47;5.80;;;1.90;99.90;1.60;100837.00;;;;4975194;28;107832;-66
2022/11/28 02:00:47;;;;;;;7.97;6.07;;;1.90;99.90;1.60;100832.00;;;;4992710;28;87881;-65
2022/11/28 02:03:31;;;;;;;7.83;6.20;;;1.90;99.90;1.50;100832.00;;;;4978807;28;108611;-65
2022/11/28 02:05:57;;;;;;;14.53;6.50;;;1.90;99.90;1.50;100833.00;;;;4968114;28;97168;-65
2022/11/28 02:08:24;;;;;;;13.20;6.17;;;1.80;99.90;1.50;100820.00;;;;4989089;28;119513;-65
2022/11/28 02:11:22;;;;;;;8.97;6.10;;;2.00;99.90;1.50;100826.00;;;;4990831;28;89356;-66
2022/11/28 02:14:33;;;;;;;9.90;5.40;;;1.00;99.90;1.40;100817.00;;;;4968096;28;106027;-65
2022/11/28 02:17:13;;;;;;;10.67;6.47;;;1.80;99.90;1.50;100825.00;;;;4985573;27;87595;-65
2022/11/28 02:20:31;;;;;;;11.53;6.20;;;1.80;99.90;1.40;100811.00;;;;4991051;28;88700;-65
2022/11/28 02:23:59;;;;;;;8.07;5.30;;;1.80;99.90;1.40;100802.00;;;;4983294;27;111585;-65
2022/11/28 02:26:32;;;;;;;8.67;5.63;;;1.80;99.90;1.40;100797.00;;;;4930282;28;88118;-65
2022/11/28 02:29:01;;;;;;;9.63;5.67;;;1.80;99.90;1.40;100800.00;;;;4978522;28;102585;-66
2022/11/28 02:32:07;;;;;;;5.90;4.47;;;1.70;99.90;1.40;100789.00;;;;4977404;28;112678;-65
2022/11/28 02:34:52;;;;;;;8.00;4.07;;;1.80;99.90;1.40;100788.00;;;;4980276;28;104466;-66
2022/11/28 02:37:34;;;;;;;8.43;5.10;;;1.70;99.90;1.40;100783.00;;;;4994055;28;95094;-65
2022/11/28 02:40:43;;;;;;;9.10;5.30;;;1.70;99.90;1.40;100774.00;;;;4979058;27;87850;-65
2022/11/28 02:43:20;;;;;;;7.00;5.53;;;1.70;99.90;1.40;100767.00;;;;4975811;28;110341;-66
2022/11/28 02:46:16;;;;;;;11.77;5.17;;;1.70;99.90;1.40;100779.00;;;;4976963;28;110224;-66
2022/11/28 02:49:06;;;;;;;9.53;5.10;;;2.00;99.90;1.40;100789.00;;;;4980663;28;88061;-65
2022/11/28 02:51:39;;;;;;;7.53;4.77;;;1.80;99.90;1.40;100787.00;;;;4992712;27;87741;-66
2022/11/28 02:54:10;;;;;;;7.50;4.67;;;1.70;99.90;1.40;100777.00;;;;4988018;27;88407;-66
2022/11/28 02:56:35;;;;;;;9.83;5.97;;;1.80;99.90;1.40;100778.00;;;;4977439;28;106614;-66
2022/11/28 02:59:01;;;;;;;7.23;4.17;;;1.70;99.90;1.40;100778.00;;;;4990358;28;88466;-66
2022/11/28 03:01:33;;;;;;;12.30;5.27;;;1.70;99.90;1.40;100772.00;;;;4989026;28;103725;-66
2022/11/28 03:04:34;;;;;;;12.27;5.13;;;1.70;99.90;1.30;100773.00;;;;4978155;28;88618;-66
2022/11/28 03:07:16;;;;;;;5.13;4.03;;;1.70;99.90;1.30;100779.00;;;;4969482;28;110446;-65
2022/11/28 03:10:18;;;;;;;8.80;4.73;;;1.70;99.90;1.30;100762.00;;;;4987629;27;93826;-66
2022/11/28 03:13:08;;;;;;;6.80;4.80;;;1.60;99.90;1.30;100759.00;;;;4980783;28;87991;-65
2022/11/28 03:16:08;;;;;;;6.37;4.00;;;1.70;99.90;1.30;100766.00;;;;4977427;28;106787;-66
2022/11/28 03:19:14;;;;;;;6.37;4.53;;;1.70;99.90;1.30;100748.00;;;;4927090;28;110364;-65
2022/11/28 03:21:52;;;;;;;7.20;5.07;;;1.60;99.90;1.30;100761.00;;;;4977931;28;104355;-65
2022/11/28 03:25:03;;;;;;;8.80;5.23;;;1.70;99.90;1.30;100744.00;;;;4966797;28;86953;-65
2022/11/28 03:27:36;;;;;;;9.97;4.67;;;1.60;99.90;1.30;100758.00;;;;4914485;28;88528;-66
2022/11/28 03:30:18;;;;;;;10.93;5.47;;;1.60;99.90;1.30;100749.00;;;;4895626;28;105814;-66
2022/11/28 03:32:46;;;;;;;7.00;4.10;;;1.60;99.90;1.30;100758.00;;;;4940594;28;89096;-66
2022/11/28 03:35:24;;;;;;;7.90;5.03;;;1.60;99.90;1.30;100746.00;;;;4965212;28;101909;-65
2022/11/28 03:37:59;;;;;;;5.73;4.80;;;1.70;99.90;1.30;100740.00;;;;4965317;28;110732;-65
2022/11/28 03:40:31;;;;;;;8.77;4.80;;;1.60;99.90;1.30;100734.00;;;;4985146;28;110126;-65
2022/11/28 03:43:09;;;;;;;7.33;5.00;;;1.50;99.90;1.20;100738.00;;;;4980080;28;91056;-67
2022/11/28 03:45:40;;;;;;;5.27;3.57;;;1.80;99.90;1.20;100740.00;;;;4976531;28;87856;-66
2022/11/28 03:48:14;;;;;;;7.77;3.80;;;1.60;99.90;1.20;100731.00;;;;4975595;28;105602;-66
2022/11/28 03:50:58;;;;;;;8.13;5.67;;;1.40;99.90;1.10;100725.00;;;;4994438;27;109097;-66
2022/11/28 03:53:30;;;;;;;7.07;4.67;;;1.40;99.90;1.10;100724.00;;;;4991755;27;87765;-66
2022/11/28 03:56:10;;;;;;;10.77;5.40;;;1.50;99.90;1.10;100728.00;;;;4990034;27;87873;-66
2022/11/28 03:58:44;;;;;;;7.03;4.67;;;1.40;99.90;1.00;100727.00;;;;4971388;28;90209;-66
2022/11/28 04:01:35;;;;;;;8.17;5.10;;;1.40;99.90;0.90;100719.00;;;;4990216;27;102656;-67
2022/11/28 04:04:31;;;;;;;6.53;4.93;;;1.30;99.90;0.80;100727.00;;;;4974493;28;102929;-67
2022/11/28 04:07:24;;;;;;;9.60;4.57;;;1.30;99.90;0.80;100726.00;;;;4968924;28;87928;-65
2022/11/28 04:10:03;;;;;;;6.27;4.47;;;1.20;99.90;0.80;100731.00;;;;4989533;28;87819;-66
2022/11/28 04:12:56;;;;;;;10.03;4.77;;;1.10;99.90;0.70;100720.00;;;;4975022;28;110649;-66
2022/11/28 04:15:47;;;;;;;6.03;4.07;;;1.00;99.90;0.70;100730.00;;;;4975356;28;104316;-66
2022/11/28 04:18:29;;;;;;;7.00;4.13;;;1.10;99.90;0.70;100716.00;;;;4948779;28;90491;-65
2022/11/28 04:21:35;;;;;;;7.50;4.87;;;1.00;99.90;0.60;100710.00;;;;4990224;27;87929;-65
2022/11/28 04:24:12;;;;;;;8.63;4.97;;;1.00;99.90;0.60;100723.00;;;;4966569;28;89433;-66
2022/11/28 04:26:51;;;;;;;9.87;6.07;;;0.90;99.90;0.60;100711.00;;;;4973689;28;98067;-65
2022/11/28 04:29:21;;;;;;;7.67;5.77;;;1.00;99.90;0.60;100716.00;;;;4975731;28;99518;-65
2022/11/28 04:31:52;;;;;;;6.87;5.23;;;1.00;99.90;0.60;100715.00;;;;4972333;28;88308;-65
2022/11/28 04:34:19;;;;;;;9.80;5.60;;;1.00;99.90;0.60;100702.00;;;;4990907;28;102391;-65
2022/11/28 04:36:47;;;;;;;10.80;5.60;;;0.20;99.90;0.60;100704.00;;;;4975795;28;101445;-66
2022/11/28 04:39:24;;;;;;;7.47;5.37;;;0.90;99.90;0.70;100706.00;;;;4974626;28;107667;-66
2022/11/28 04:41:52;;;;;;;7.27;4.97;;;1.10;99.90;0.70;100703.00;;;;4977313;28;111526;-65
2022/11/28 04:44:30;;;;;;;10.03;5.33;;;1.10;99.90;0.70;100696.00;;;;4991600;27;95123;-65
2022/11/28 04:46:56;;;;;;;9.03;5.87;;;1.10;99.90;0.70;100698.00;;;;4976102;28;96095;-65
2022/11/28 04:49:25;;;;;;;12.93;5.80;;;1.00;99.90;0.70;100699.00;;;;4990349;27;109147;-65
2022/11/28 04:52:15;;;;;;;8.60;5.13;;;1.00;99.90;0.80;100706.00;;;;4975173;28;102127;-65
2022/11/28 04:55:12;;;;;;;5.87;4.47;;;1.10;99.90;0.70;100692.00;;;;4986683;28;94374;-65
2022/11/28 04:57:45;;;;;;;7.43;4.93;;;1.10;99.90;0.80;100696.00;;;;4974044;28;104017;-65
2022/11/28 05:00:16;;;;;;;6.97;4.83;;;1.10;99.90;0.80;100699.00;;;;4977063;28;100476;-65
2022/11/28 05:02:44;;;;;;;10.53;5.77;;;1.10;99.90;0.80;100691.00;;;;4972148;28;88790;-65
2022/11/28 05:05:16;;;;;;;6.87;4.70;;;1.20;99.90;0.80;100682.00;;;;4973637;28;106709;-65
2022/11/28 05:07:42;;;;;;;13.47;5.37;;;1.10;99.90;0.80;100699.00;;;;4989833;28;88042;-65
2022/11/28 05:10:09;;;;;;;7.60;3.93;;;1.10;99.90;0.80;100687.00;;;;4989143;28;109587;-65
2022/11/28 05:12:35;;;;;;;5.77;4.13;;;1.10;99.90;0.80;100690.00;;;;4984804;28;99238;-66
2022/11/28 05:15:01;;;;;;;7.03;4.00;;;1.10;99.90;0.80;100690.00;;;;4990289;28;87874;-65
2022/11/28 05:17:26;;;;;;;7.37;5.67;;;1.10;99.90;0.80;100692.00;;;;4988514;28;109357;-65
2022/11/28 05:19:52;;;;;;;5.70;4.60;;;1.10;99.90;0.80;100698.00;;;;4991143;27;108351;-65
2022/11/28 05:22:18;;;;;;;9.33;5.30;;;1.10;99.90;0.80;100694.00;;;;4991866;28;118329;-66
2022/11/28 05:24:43;;;;;;;8.80;4.70;;;1.10;99.90;0.80;100692.00;;;;4982926;28;116800;-65
2022/11/28 05:27:10;;;;;;;7.40;5.10;;;1.20;99.90;0.80;100689.00;;;;4987251;28;110413;-67
2022/11/28 05:29:36;;;;;;;11.40;5.20;;;1.20;99.90;0.80;100680.00;;;;4991169;27;87753;-66
2022/11/28 05:32:02;;;;;;;12.47;5.70;;;1.10;99.90;0.80;100683.00;;;;4987364;27;101147;-66
2022/11/28 05:34:29;;;;;;;8.97;4.57;;;1.20;99.90;0.80;100693.00;;;;4986504;28;109061;-66
2022/11/28 05:36:56;;;;;;;6.93;4.37;;;1.20;99.90;0.80;100675.00;;;;4992940;28;87680;-66
2022/11/28 05:39:22;;;;;;;16.67;6.00;;;1.20;99.90;0.80;100687.00;;;;4993990;27;101867;-66
2022/11/28 05:41:48;;;;;;;7.27;4.57;;;1.20;99.90;0.90;100684.00;;;;4992098;28;118688;-66
2022/11/28 05:44:13;;;;;;;10.13;5.40;;;1.20;99.90;0.80;100678.00;;;;4988270;28;117116;-65
2022/11/28 05:46:39;;;;;;;6.80;4.60;;;1.10;99.90;0.90;100674.00;;;;4994727;27;111335;-65
2022/11/28 05:49:05;;;;;;;8.40;5.40;;;1.20;99.90;0.90;100674.00;;;;4994154;27;107320;-65
2022/11/28 05:51:30;;;;;;;6.90;4.97;;;1.20;99.90;0.90;100663.00;;;;4988956;27;106122;-65
2022/11/28 05:53:56;;;;;;;7.93;5.30;;;1.20;99.90;0.90;100657.00;;;;4990420;27;116999;-65
2022/11/28 05:56:22;;;;;;;11.03;4.93;;;1.20;99.90;0.90;100662.00;;;;4990895;27;87913;-65
2022/11/28 05:58:48;;;;;;;7.40;4.17;;;1.20;99.90;0.90;100655.00;;;;4993758;27;96312;-66
2022/11/28 06:01:20;;;;;;;7.63;5.20;;;1.30;99.90;0.90;100652.00;;;;4990692;27;88555;-65
2022/11/28 06:03:46;;;;;;;9.47;5.30;;;1.00;99.90;0.90;100661.00;;;;4994418;27;88189;-65
2022/11/28 06:06:19;;;;;;;7.47;5.03;;;1.30;99.90;0.90;100665.00;;;;4987729;27;110892;-65
2022/11/28 06:08:47;;;;;;;6.33;4.83;;;1.30;99.90;1.00;100657.00;;;;4997533;27;87859;-66
2022/11/28 06:11:14;;;;;;;6.93;4.83;;;1.30;99.90;1.00;100660.00;;;;4995234;27;88707;-66
2022/11/28 06:13:41;;;;;;;8.53;5.03;;;1.30;99.90;1.00;100648.00;;;;4993522;27;87965;-67
2022/11/28 06:16:20;;;;;;;6.77;3.97;;;1.30;99.90;1.00;100652.00;;;;4992213;27;87811;-66
2022/11/28 06:18:46;;;;;;;7.37;4.20;;;1.30;99.90;1.00;100636.00;;;;4989838;27;87886;-67
2022/11/28 06:21:13;;;;;;;8.67;5.07;;;1.30;99.90;1.00;100640.00;;;;4990894;27;88784;-66
2022/11/28 06:23:39;;;;;;;7.17;5.07;;;1.30;99.90;1.10;100639.00;;;;4987979;27;91172;-65
2022/11/28 06:26:09;;;;;;;8.87;4.73;;;1.30;99.90;1.10;100645.00;;;;4991240;28;102361;-65
2022/11/28 06:28:35;;;;;;;6.47;4.73;;;1.30;99.90;1.10;100629.00;;;;4988540;28;97992;-64
2022/11/28 06:31:01;;;;;;;8.53;4.60;;;1.40;99.90;1.10;100644.00;;;;4974874;28;117145;-65
2022/11/28 06:33:27;;;;;;;8.53;4.90;;;1.40;99.90;1.20;100632.00;;;;4991108;28;117858;-65
2022/11/28 06:36:02;;;;;;;5.77;3.97;;;1.50;99.90;1.20;100633.00;;;;4991025;27;104202;-65
2022/11/28 06:38:28;;;;;;;7.80;4.67;;;1.50;99.90;1.30;100635.00;;;;4991466;28;87678;-65
2022/11/28 06:41:00;;;;;;;6.93;5.20;;;1.50;99.90;1.30;100643.00;;;;4993107;28;99777;-65
2022/11/28 06:43:26;;;;;;;4.17;3.47;;;1.60;99.90;1.30;100628.00;;;;4994944;28;87669;-65
2022/11/28 06:45:52;;;;;;;9.00;4.77;;;1.60;99.90;1.40;100633.00;;;;4991600;28;87795;-65
2022/11/28 06:48:18;;;;;;;12.70;5.83;;;1.70;99.90;1.40;100631.00;;;;4997985;28;87141;-65
2022/11/28 06:50:43;;;;;;;8.63;4.40;;;1.60;99.90;1.40;100624.00;;;;4993137;28;110504;-65
2022/11/28 06:53:09;;;;;;;11.20;5.60;;;1.70;99.90;1.50;100625.00;;;;4991786;27;115619;-65
2022/11/28 06:55:35;;;;;;;7.27;4.93;;;1.70;99.90;1.50;100628.00;;;;4990627;27;110021;-65
2022/11/28 06:58:00;;;;;;;8.13;4.87;;;1.70;99.90;1.50;100633.00;;;;4990166;28;108212;-65
2022/11/28 07:00:26;;;;;;;8.13;4.73;;;1.70;99.90;1.50;100633.00;;;;4991558;28;117357;-65
2022/11/28 07:02:52;;;;;;;8.87;5.23;;;1.80;99.90;1.50;100635.00;;;;4990437;28;88478;-65
2022/11/28 07:05:18;;;;;;;7.77;5.90;;;1.80;99.90;1.50;100628.00;;;;4988417;27;110667;-65
2022/11/28 07:07:44;;;;;;;7.90;4.80;;;1.90;99.90;1.60;100623.00;;;;4977521;28;88161;-65
2022/11/28 07:10:10;;;;;;;9.07;4.20;;;1.80;99.90;1.60;100616.00;;;;4991178;28;107437;-65
2022/11/28 07:12:36;;;;;;;9.47;4.50;;;1.90;99.90;1.60;100620.00;;;;4990197;28;88848;-65
2022/11/28 07:15:03;;;;;;;7.37;5.80;;;1.80;99.90;1.70;100627.00;;;;4993010;27;87868;-65
2022/11/28 07:17:29;;;;;;;5.17;4.63;;;2.00;99.90;1.70;100626.00;;;;4976161;28;98648;-65
2022/11/28 07:19:54;;;;;;;9.10;5.17;;;2.00;99.90;1.70;100617.00;;;;4979796;28;89348;-66
2022/11/28 07:22:21;;;;;;;10.90;4.87;;;1.90;99.90;1.80;100607.00;;;;4978813;28;104684;-66
2022/11/28 07:24:47;;;;;;;8.43;5.07;;;2.00;99.90;1.80;100613.00;;;;4986799;28;87610;-66
2022/11/28 07:27:13;;;;;;;7.80;5.40;;;2.10;99.90;1.80;100607.00;;;;4986006;27;88071;-67
2022/11/28 07:29:38;;;;;;;6.17;4.57;;;2.90;99.90;1.90;100603.00;;;;4994134;28;116590;-67
2022/11/28 07:32:06;;;;;;;7.97;5.73;;;2.30;99.90;1.90;100601.00;;;;4976779;28;115803;-67
2022/11/28 07:34:33;;;;;;;6.00;5.37;;;2.20;99.90;2.00;100601.00;;;;4991347;27;87781;-67
2022/11/28 07:36:59;;;;;;;9.00;5.17;;;2.70;99.90;2.00;100596.00;;;;4990064;28;86909;-65
2022/11/28 07:39:25;;;;;;;8.17;5.57;;;2.30;99.90;2.10;100591.00;;;;4991083;27;117265;-66
2022/11/28 07:41:51;;;;;;;6.43;4.57;;;2.40;99.90;2.10;100598.00;;;;4986726;28;98482;-66
2022/11/28 07:44:17;;;;;;;5.50;3.93;;;2.30;99.90;2.20;100592.00;;;;4992874;27;109458;-66
2022/11/28 07:46:44;;;;;;;7.47;4.87;;;2.40;99.90;2.20;100592.00;;;;4992492;27;107340;-67
2022/11/28 07:49:11;;;;;;;5.77;4.37;;;2.50;99.90;2.20;100588.00;;;;4995124;28;96802;-65
2022/11/28 07:51:38;;;;;;;8.00;5.23;;;2.60;99.90;2.30;100588.00;;;;4994872;27;98455;-66
2022/11/28 07:54:04;;;;;;;5.17;4.30;;;2.50;99.90;2.30;100576.00;;;;4987799;28;87727;-66
2022/11/28 07:56:34;;;;;;;8.13;5.27;;;2.50;99.90;2.30;100573.00;;;;4980747;28;87691;-66
2022/11/28 07:59:01;;;;;;;9.07;5.90;;;2.60;99.90;2.40;100571.00;;;;4992639;28;111664;-65
2022/11/28 08:01:31;;;;;;;9.30;5.73;;;3.60;99.90;2.40;100567.00;;;;4991136;28;88111;-67
2022/11/28 08:03:58;;;;;;;7.57;4.93;;;2.60;99.90;2.40;100566.00;;;;4991656;27;87578;-67
2022/11/28 08:06:27;;;;;;;8.40;4.87;;;2.60;99.90;2.50;100571.00;;;;4991177;28;87919;-67
2022/11/28 08:08:54;;;;;;;7.33;4.23;;;2.70;99.90;2.60;100568.00;;;;4987059;28;94134;-66
2022/11/28 08:11:22;;;;;;;7.37;5.10;;;2.80;99.90;2.60;100572.00;;;;4990385;28;89466;-65
2022/11/28 08:13:49;;;;;;;5.73;3.97;;;3.60;99.90;2.70;100572.00;;;;4974676;28;88445;-66
2022/11/28 08:16:22;;;;;;;4.50;3.53;;;2.30;99.90;2.70;100562.00;;;;4988909;28;89494;-65
2022/11/28 08:18:50;;;;;;;6.00;4.47;;;2.90;99.90;2.80;100566.00;;;;4988130;28;98150;-66
2022/11/28 08:21:23;;;;;;;7.03;4.77;;;3.00;99.90;2.90;100563.00;;;;4986503;28;98016;-66
2022/11/28 08:23:50;;;;;;;9.83;5.03;;;3.10;99.90;2.90;100571.00;;;;4985177;28;87830;-65
2022/11/28 08:26:20;;;;;;;6.17;4.73;;;3.10;99.90;3.00;100553.00;;;;4989300;28;87019;-66
2022/11/28 08:28:46;;;;;;;5.13;3.27;;;3.20;99.90;3.10;100570.00;;;;4963868;28;88829;-65
2022/11/28 08:31:13;;;;;;;8.00;4.60;;;3.30;99.90;3.20;100557.00;;;;4989179;28;117088;-65
2022/11/28 08:33:40;;;;;;;5.77;3.97;;;3.40;99.90;3.30;100569.00;;;;4991383;28;88816;-66
2022/11/28 08:36:08;;;;;;;7.30;4.63;;;3.50;99.90;3.40;100553.00;;;;4994847;28;91710;-66
2022/11/28 08:38:34;;;;;;;7.20;5.00;;;3.50;99.90;3.50;100560.00;;;;4988076;28;94467;-65
2022/11/28 08:41:10;;;;;;;7.43;5.27;;;3.60;99.90;3.60;100570.00;;;;4989895;28;88543;-65
2022/11/28 08:43:37;;;;;;;7.17;4.97;;;3.80;99.90;3.70;100570.00;;;;4990535;28;87799;-65
2022/11/28 08:46:05;;;;;;;7.97;4.97;;;3.90;99.90;3.90;100563.00;;;;4981714;27;87860;-66
2022/11/28 08:48:31;;;;;;;6.17;5.30;;;4.20;99.90;4.00;100567.00;;;;4970274;28;89930;-65
2022/11/28 08:50:57;;;;;;;5.10;4.20;;;4.20;99.90;4.10;100574.00;;;;4990698;28;88579;-66
2022/11/28 08:53:23;;;;;;;4.63;4.23;;;4.30;99.90;4.30;100574.00;;;;4988154;28;109731;-66
2022/11/28 08:55:49;;;;;;;5.83;3.67;;;4.40;99.90;4.40;100573.00;;;;4987539;28;87799;-67
2022/11/28 08:58:14;;;;;;;9.00;4.00;;;4.90;99.90;4.60;100572.00;;;;4988299;28;117941;-66
2022/11/28 09:00:41;;;;;;;9.03;5.47;;;5.50;99.90;4.80;100567.00;;;;4987776;28;118831;-66
2022/11/28 09:03:15;;;;;;;6.83;4.33;;;4.80;99.90;5.00;100572.00;;;;4989635;28;88080;-66
2022/11/28 09:05:44;;;;;;;6.63;4.43;;;5.00;99.90;5.20;100568.00;;;;4992580;27;99661;-66
2022/11/28 09:08:19;;;;;;;8.57;5.03;;;5.30;99.90;5.40;100562.00;;;;4993728;28;88326;-66
2022/11/28 09:10:45;;;;;;;8.40;4.50;;;5.40;99.90;5.50;100558.00;;;;4992902;28;88352;-67
2022/11/28 09:13:13;;;;;;;6.97;5.43;;;5.50;99.90;5.60;100556.00;;;;4991753;27;101497;-66
2022/11/28 09:15:42;;;;;;;7.47;4.13;;;5.70;99.90;5.70;100561.00;;;;4993094;27;87245;-67
2022/11/28 09:18:08;;;;;;;12.40;4.50;;;5.90;99.90;5.90;100551.00;;;;4992029;28;87859;-67
2022/11/28 09:20:35;;;;;;;10.60;4.63;;;5.90;99.90;6.00;100562.00;;;;4981701;28;87961;-65
2022/11/28 09:23:00;;;;;;;4.33;3.57;;;6.20;99.90;6.10;100554.00;;;;4993387;28;89049;-67
2022/11/28 09:25:26;;;;;;;6.60;5.17;;;6.80;99.90;6.10;100555.00;;;;4991751;28;105619;-66
2022/11/28 09:27:52;;;;;;;5.10;3.70;;;6.30;99.90;6.20;100554.00;;;;4989252;27;113911;-65
2022/11/28 09:30:21;;;;;;;9.03;5.10;;;7.10;99.90;6.30;100552.00;;;;4991172;28;116789;-65
2022/11/28 09:32:48;;;;;;;9.73;5.53;;;7.10;99.90;6.40;100555.00;;;;4994065;27;87841;-66
2022/11/28 09:35:15;;;;;;;5.37;4.73;;;7.20;99.90;6.50;100552.00;;;;4994597;28;87808;-67
2022/11/28 09:37:40;;;;;;;9.27;5.77;;;6.60;99.90;6.50;100546.00;;;;4979578;28;101031;-65
2022/11/28 09:40:14;;;;;;;8.10;5.53;;;6.60;99.90;6.50;100551.00;;;;4987712;28;106203;-66
2022/11/28 09:42:42;;;;;;;9.20;5.60;;;6.60;99.90;6.50;100549.00;;;;4995508;27;87867;-66
2022/11/28 09:45:19;;;;;;;8.87;4.57;;;7.20;99.90;6.50;100558.00;;;;4997716;28;88042;-67
2022/11/28 09:47:54;;;;;;;8.97;6.17;;;6.70;99.90;6.50;100546.00;;;;4978365;28;89108;-66
2022/11/28 09:50:29;;;;;;;8.07;4.40;;;7.40;99.90;6.50;100547.00;;;;4980375;27;88562;-67
2022/11/28 09:53:23;;;;;;;11.53;5.03;;;7.00;99.90;6.40;100547.00;;;;4983309;28;87975;-66
2022/11/28 09:56:04;;;;;;;6.77;4.93;;;6.60;99.90;6.40;100551.00;;;;4984742;28;88578;-66
2022/11/28 09:58:47;;;;;;;8.53;6.13;;;6.60;99.90;6.30;100550.00;;;;4981931;27;107752;-65
2022/11/28 10:01:18;;;;;;;8.07;5.57;;;6.50;99.90;6.30;100549.00;;;;4963374;28;98018;-65
2022/11/28 10:03:59;;;;;;;6.57;4.90;;;6.50;99.90;6.30;100552.00;;;;4986078;28;87640;-67
2022/11/28 10:07:19;;;;;;;7.70;4.63;;;6.60;99.90;6.30;100559.00;;;;4979109;28;86995;-66
2022/11/28 10:10:17;;;;;;;7.30;5.57;;;6.50;99.90;6.30;100568.00;;;;4988828;28;87811;-67
2022/11/28 10:13:12;;;;;;;9.73;5.97;;;6.50;99.90;6.30;100570.00;;;;4988372;27;110457;-66
2022/11/28 10:15:54;;;;;;;7.83;4.83;;;6.50;99.90;6.30;100558.00;;;;4978977;28;88845;-66
2022/11/28 10:18:43;;;;;;;8.13;5.60;;;6.50;99.90;6.20;100556.00;;;;4975955;28;102561;-66
2022/11/28 10:21:50;;;;;;;7.40;4.43;;;6.40;99.90;6.20;100542.00;;;;4976306;28;88033;-66
2022/11/28 10:24:36;;;;;;;10.33;5.07;;;6.40;99.90;6.30;100544.00;;;;4976125;28;87864;-66
2022/11/28 10:27:04;;;;;;;8.57;5.77;;;6.70;99.90;6.30;100549.00;;;;4976102;28;87799;-65
2022/11/28 10:29:53;;;;;;;7.43;4.73;;;6.90;99.90;6.30;100538.00;;;;4987314;28;87968;-68
2022/11/28 10:32:39;;;;;;;9.30;5.27;;;6.50;99.90;6.40;100537.00;;;;4992820;28;88036;-65
2022/11/28 10:35:25;;;;;;;7.07;5.20;;;6.50;99.90;6.40;100537.00;;;;4979623;28;87318;-66
2022/11/28 10:37:51;;;;;;;7.90;5.53;;;6.50;99.90;6.40;100540.00;;;;4965188;28;87761;-65
2022/11/28 10:40:43;;;;;;;9.10;5.27;;;7.30;99.90;6.50;100552.00;;;;4984352;28;109832;-66
2022/11/28 10:43:35;;;;;;;10.70;5.07;;;6.70;99.90;6.50;100540.00;;;;4977696;28;104666;-66
2022/11/28 10:46:50;;;;;;;5.33;4.47;;;7.10;99.90;6.60;100539.00;;;;4974826;28;113184;-65
2022/11/28 10:49:46;;;;;;;6.97;4.93;;;6.70;99.90;6.60;100541.00;;;;4931218;28;88074;-66
2022/11/28 10:52:50;;;;;;;11.27;5.40;;;6.70;99.90;6.60;100539.00;;;;4968678;28;87880;-66
2022/11/28 10:55:30;;;;;;;8.27;5.07;;;6.80;99.90;6.60;100538.00;;;;4913720;28;99489;-66
2022/11/28 10:58:31;;;;;;;8.47;5.47;;;6.80;99.90;6.60;100536.00;;;;4980630;27;111783;-66
2022/11/28 11:00:57;;;;;;;8.00;5.53;;;6.80;99.90;6.60;100531.00;;;;4978643;28;88079;-66
2022/11/28 11:03:37;;;;;;;9.67;5.43;;;6.80;99.90;6.60;100518.00;;;;4990310;28;87361;-67
2022/11/28 11:06:03;;;;;;;8.83;5.00;;;7.00;99.90;6.60;100521.00;;;;4976049;28;88712;-67
2022/11/28 11:08:35;;;;;;;7.37;5.40;;;6.70;99.90;6.60;100528.00;;;;4990755;28;87745;-67
2022/11/28 11:11:26;;;;;;;8.10;5.10;;;6.70;99.90;6.40;100536.00;;;;4985472;28;88854;-66
2022/11/28 11:14:05;;;;;;;8.57;4.53;;;6.70;99.90;6.50;100518.00;;;;4964576;28;87932;-67
2022/11/28 11:16:48;;;;;;;8.10;5.60;;;6.60;99.90;6.40;100520.00;;;;4973997;28;102940;-66
2022/11/28 11:19:31;;;;;;;8.97;5.33;;;7.10;99.90;6.40;100525.00;;;;4991477;27;87881;-65
2022/11/28 11:22:02;;;;;;;10.27;4.33;;;6.60;99.90;6.40;100511.00;;;;4990769;27;87771;-67
2022/11/28 11:24:28;;;;;;;7.13;5.00;;;6.90;99.90;6.50;100512.00;;;;4996318;28;88384;-66
2022/11/28 11:27:05;;;;;;;7.50;5.17;;;6.70;99.90;6.50;100517.00;;;;4991016;28;112801;-66